Time;durP1;ratioP1;P1;durP2;ratioP2;P2;SDS_P1;SDS_P2;PMS_P1;PMS_P2;Temp;Humidity;BMP_temperature;BMP_pressure;BME280_temperature;BME280_humidity;BME280_pressure;Samples;Min_cycle;Max_cycle;Signal;HPM_P1;HPM_P2
2022/03/26 00:00:05;;;;;;;40.58;21.17;;;;;;;14.42;47.92;102138.13;5041608;28;20036;-86
2022/03/26 00:02:30;;;;;;;43.28;24.80;;;;;;;14.31;48.46;102141.34;5054497;28;20017;-87
2022/03/26 00:04:56;;;;;;;41.50;24.38;;;;;;;14.36;48.24;102130.53;5054422;28;20497;-86
2022/03/26 00:07:21;;;;;;;41.25;22.65;;;;;;;14.48;47.65;102132.47;5054255;28;20478;-87
2022/03/26 00:09:46;;;;;;;40.30;23.23;;;;;;;14.37;48.04;102122.50;5053868;28;20023;-86
2022/03/26 00:12:12;;;;;;;43.50;26.17;;;;;;;14.23;48.60;102128.56;5054045;28;20036;-87
2022/03/26 00:14:38;;;;;;;46.22;23.67;;;;;;;14.31;48.25;102129.94;5052366;28;20037;-86
2022/03/26 00:17:04;;;;;;;40.70;23.50;;;;;;;14.26;48.37;102125.75;5053860;28;20103;-87
2022/03/26 00:19:29;;;;;;;45.25;24.77;;;;;;;14.26;48.39;102117.84;5053951;28;20082;-87
2022/03/26 00:21:55;;;;;;;45.97;25.48;;;;;;;14.15;48.84;102122.88;5053749;28;20075;-87
2022/03/26 00:24:20;;;;;;;42.20;24.50;;;;;;;14.16;48.58;102123.72;5052591;28;20033;-86
2022/03/26 00:26:45;;;;;;;38.63;24.33;;;;;;;14.18;48.95;102120.06;5050899;28;20021;-86
2022/03/26 00:29:11;;;;;;;44.38;24.58;;;;;;;14.27;48.70;102121.31;5053456;28;20021;-87
2022/03/26 00:31:37;;;;;;;47.47;24.75;;;;;;;14.08;48.76;102114.44;5053431;28;20125;-86
2022/03/26 00:34:05;;;;;;;44.72;24.63;;;;;;;14.25;48.49;102121.41;5053774;28;20032;-87
2022/03/26 00:36:31;;;;;;;46.78;24.70;;;;;;;14.02;48.99;102117.44;5053876;28;20021;-86
2022/03/26 00:38:56;;;;;;;37.22;22.35;;;;;;;14.21;48.57;102119.88;5053026;28;20112;-86
2022/03/26 00:41:23;;;;;;;43.22;23.08;;;;;;;14.25;48.24;102113.47;5033421;28;20105;-86
2022/03/26 00:43:48;;;;;;;37.85;21.65;;;;;;;14.32;48.29;102115.81;5033878;28;20036;-87
2022/03/26 00:46:14;;;;;;;39.58;22.67;;;;;;;14.28;48.24;102121.25;5033633;28;20026;-86
2022/03/26 00:48:39;;;;;;;48.08;24.73;;;;;;;14.13;48.62;102122.09;5033553;28;20489;-86
2022/03/26 00:51:04;;;;;;;45.33;23.48;;;;;;;14.00;49.01;102116.66;5033383;28;20025;-87
2022/03/26 00:53:30;;;;;;;44.67;24.08;;;;;;;14.00;49.53;102105.22;5033366;28;20395;-86
2022/03/26 00:55:55;;;;;;;49.13;25.33;;;;;;;13.76;49.81;102110.06;5033795;28;20138;-87
2022/03/26 00:58:21;;;;;;;47.17;24.90;;;;;;;13.73;49.56;102112.88;5033099;28;20391;-86
2022/03/26 01:00:46;;;;;;;48.03;24.98;;;;;;;13.70;49.48;102103.31;5033112;28;20033;-87
2022/03/26 01:03:12;;;;;;;42.67;25.33;;;;;;;13.60;50.31;102108.25;5033302;28;20586;-87
2022/03/26 01:05:41;;;;;;;53.85;25.70;;;;;;;13.69;49.87;102107.75;5033093;28;20048;-87
2022/03/26 01:08:06;;;;;;;47.65;25.48;;;;;;;13.65;50.06;102100.94;5035277;28;20478;-87
2022/03/26 01:10:32;;;;;;;48.20;25.92;;;;;;;13.54;50.05;102107.72;5051231;28;20040;-87
2022/03/26 01:12:57;;;;;;;46.05;24.38;;;;;;;13.55;50.33;102106.81;5052707;28;20448;-86
2022/03/26 01:15:23;;;;;;;43.03;24.83;;;;;;;13.39;50.56;102112.91;5053097;28;20020;-87
2022/03/26 01:17:49;;;;;;;41.65;24.42;;;;;;;13.44;50.41;102112.63;5052784;28;20151;-87
2022/03/26 01:20:16;;;;;;;43.75;25.00;;;;;;;13.40;50.58;102108.47;5052728;28;20021;-87
2022/03/26 01:22:42;;;;;;;43.58;23.70;;;;;;;13.30;50.95;102097.53;5052843;28;20048;-87
2022/03/26 01:25:07;;;;;;;42.95;23.25;;;;;;;13.36;50.68;102120.97;5049836;28;20461;-87
2022/03/26 01:27:33;;;;;;;47.10;24.13;;;;;;;13.28;50.73;102112.56;5037913;28;20041;-87
2022/03/26 01:29:58;;;;;;;48.08;24.30;;;;;;;13.33;50.84;102115.84;5052452;28;20017;-86
2022/03/26 01:32:23;;;;;;;45.25;24.70;;;;;;;13.33;50.61;102110.59;5052287;28;20041;-87
2022/03/26 01:34:49;;;;;;;48.00;25.38;;;;;;;13.34;50.57;102104.34;5051118;28;20017;-87
2022/03/26 01:37:16;;;;;;;46.80;26.75;;;;;;;13.30;50.99;102110.72;5055565;28;20029;-87
2022/03/26 01:39:42;;;;;;;48.05;24.88;;;;;;;13.29;50.83;102103.72;5070997;28;20029;-86
2022/03/26 01:42:08;;;;;;;50.88;26.10;;;;;;;13.27;51.14;102106.44;5073080;28;20117;-86
2022/03/26 01:44:36;;;;;;;50.85;26.38;;;;;;;13.21;51.17;102095.34;5058301;28;20107;-87
2022/03/26 01:47:03;;;;;;;52.78;25.60;;;;;;;13.04;51.47;102097.06;5052031;28;20036;-87
2022/03/26 01:49:30;;;;;;;50.60;26.00;;;;;;;12.93;51.59;102098.56;5052073;28;20032;-87
2022/03/26 01:51:55;;;;;;;43.47;25.98;;;;;;;12.83;51.85;102106.06;5050805;28;20059;-87
2022/03/26 01:54:21;;;;;;;48.42;27.23;;;;;;;12.72;52.24;102097.84;5050370;28;20526;-87
2022/03/26 01:56:47;;;;;;;43.92;25.38;;;;;;;12.67;52.31;102091.00;5050683;28;20044;-87
2022/03/26 01:59:12;;;;;;;48.00;27.20;;;;;;;12.63;52.62;102093.91;5051738;28;20025;-87
2022/03/26 02:01:38;;;;;;;50.38;26.85;;;;;;;12.55;52.87;102096.91;5048707;28;20119;-87
2022/03/26 02:04:08;;;;;;;50.80;27.05;;;;;;;12.52;52.79;102099.72;5051939;28;20029;-87
2022/03/26 02:06:36;;;;;;;56.00;28.27;;;;;;;12.46;53.20;102097.34;5051899;28;20036;-87
2022/03/26 02:09:04;;;;;;;49.33;27.50;;;;;;;12.44;53.45;102099.19;5038664;28;20119;-87
2022/03/26 02:11:33;;;;;;;49.88;28.67;;;;;;;12.63;53.17;102094.75;5031702;28;20029;-86
2022/03/26 02:14:00;;;;;;;50.75;29.10;;;;;;;12.58;53.10;102101.16;5031790;28;20032;-86
2022/03/26 02:16:26;;;;;;;50.33;27.48;;;;;;;12.61;53.07;102096.59;5031854;28;20597;-87
2022/03/26 02:18:52;;;;;;;58.58;29.65;;;;;;;12.61;53.26;102093.97;5031883;28;20408;-86
2022/03/26 02:21:20;;;;;;;54.33;27.90;;;;;;;12.60;53.26;102097.53;5031617;28;20037;-87
2022/03/26 02:23:49;;;;;;;53.88;28.13;;;;;;;12.69;53.15;102089.16;5040549;28;20021;-87
2022/03/26 02:26:16;;;;;;;58.25;28.08;;;;;;;12.55;53.32;102086.38;5051509;28;20419;-87
2022/03/26 02:28:44;;;;;;;60.58;29.25;;;;;;;12.51;53.05;102090.09;5051603;28;20028;-87
2022/03/26 02:31:09;;;;;;;53.63;27.50;;;;;;;12.56;53.26;102092.47;5051398;28;20029;-86
2022/03/26 02:33:34;;;;;;;55.45;27.83;;;;;;;12.55;53.43;102096.91;5043690;28;20021;-87
2022/03/26 02:36:00;;;;;;;53.13;28.30;;;;;;;12.48;53.59;102092.88;5031765;28;20535;-86
2022/03/26 02:38:26;;;;;;;56.08;28.45;;;;;;;12.45;53.50;102095.66;5031452;28;20484;-87
2022/03/26 02:40:51;;;;;;;56.20;28.17;;;;;;;12.36;53.56;102094.34;5031459;28;20487;-86
2022/03/26 02:43:17;;;;;;;56.33;27.67;;;;;;;12.28;53.96;102093.81;5031515;28;20022;-86
2022/03/26 02:45:46;;;;;;;55.15;27.90;;;;;;;12.42;53.80;102094.03;5031693;28;20025;-86
2022/03/26 02:48:13;;;;;;;55.78;26.27;;;;;;;12.41;53.52;102089.69;5033883;28;20467;-86
2022/03/26 02:50:41;;;;;;;56.97;27.55;;;;;;;12.40;53.57;102090.63;5035566;28;20033;-86
2022/03/26 02:53:07;;;;;;;54.53;27.90;;;;;;;12.35;53.73;102086.50;5035912;28;20037;-86
2022/03/26 02:55:33;;;;;;;59.58;28.65;;;;;;;12.29;53.75;102085.84;5037855;28;20046;-86
2022/03/26 02:57:58;;;;;;;60.05;27.58;;;;;;;12.39;53.29;102090.69;5055047;28;20040;-86
2022/03/26 03:00:23;;;;;;;55.85;28.00;;;;;;;12.35;53.37;102084.72;5055195;28;20017;-86
2022/03/26 03:02:49;;;;;;;52.20;29.15;;;;;;;12.28;53.59;102078.91;5053552;28;20024;-86
2022/03/26 03:05:14;;;;;;;62.28;29.38;;;;;;;12.25;53.71;102086.94;5053906;28;20032;-87
2022/03/26 03:07:40;;;;;;;56.58;27.77;;;;;;;12.23;54.10;102080.88;5054974;28;20391;-86
2022/03/26 03:10:07;;;;;;;54.30;25.80;;;;;;;12.23;53.78;102086.16;5055139;28;20032;-86
2022/03/26 03:12:32;;;;;;;54.05;28.48;;;;;;;12.10;54.23;102088.53;5055124;28;20033;-86
2022/03/26 03:14:58;;;;;;;56.25;28.80;;;;;;;12.20;53.79;102083.66;5055109;28;20111;-86
2022/03/26 03:17:23;;;;;;;52.63;27.13;;;;;;;12.28;53.52;102089.44;5045927;28;20384;-87
2022/03/26 03:19:48;;;;;;;52.72;26.92;;;;;;;12.33;53.19;102083.09;5034947;28;20108;-86
2022/03/26 03:22:14;;;;;;;50.08;25.77;;;;;;;12.30;53.16;102087.59;5035131;28;20061;-87
2022/03/26 03:24:39;;;;;;;52.30;24.65;;;;;;;12.25;53.43;102084.31;5035176;28;20112;-86
2022/03/26 03:27:05;;;;;;;55.28;27.15;;;;;;;12.27;53.31;102085.06;5054266;28;20422;-86
2022/03/26 03:29:30;;;;;;;54.13;25.92;;;;;;;12.37;52.96;102088.13;5054895;28;20040;-86
2022/03/26 03:31:56;;;;;;;57.10;25.88;;;;;;;12.26;53.37;102086.03;5054525;28;20025;-87
2022/03/26 03:34:22;;;;;;;51.28;25.40;;;;;;;12.08;53.14;102094.78;5052952;28;20031;-86
2022/03/26 03:36:48;;;;;;;52.83;24.67;;;;;;;12.29;52.38;102096.41;5054589;28;20099;-86
2022/03/26 03:39:13;;;;;;;53.22;25.83;;;;;;;12.24;52.81;102101.03;5054657;28;20025;-86
2022/03/26 03:41:39;;;;;;;47.97;24.25;;;;;;;12.19;52.71;102094.28;5054502;28;20622;-87
2022/03/26 03:44:05;;;;;;;56.83;25.25;;;;;;;12.12;52.90;102092.88;5054480;28;20493;-86
2022/03/26 03:46:31;;;;;;;49.53;25.02;;;;;;;12.22;52.77;102094.13;5054546;28;20029;-87
2022/03/26 03:48:57;;;;;;;48.47;24.00;;;;;;;12.15;52.64;102092.72;5046821;28;20422;-87
2022/03/26 03:51:22;;;;;;;46.70;25.05;;;;;;;12.13;52.64;102087.53;5034258;28;20032;-86
2022/03/26 03:53:48;;;;;;;46.33;24.08;;;;;;;12.09;52.60;102099.13;5034453;28;20108;-87
2022/03/26 03:56:13;;;;;;;53.20;25.30;;;;;;;12.12;52.42;102093.72;5033272;28;20029;-87
2022/03/26 03:58:39;;;;;;;51.05;23.35;;;;;;;12.02;52.42;102095.06;5034164;28;20026;-87
2022/03/26 04:01:04;;;;;;;46.60;23.75;;;;;;;12.04;52.73;102086.16;5034258;28;20079;-87
2022/03/26 04:03:30;;;;;;;45.88;24.15;;;;;;;11.86;53.10;102087.00;5035581;28;20041;-86
2022/03/26 04:05:55;;;;;;;48.40;22.98;;;;;;;11.54;53.60;102091.97;5053956;28;20029;-87
2022/03/26 04:08:21;;;;;;;49.30;22.60;;;;;;;11.62;53.56;102089.00;5052867;28;20132;-86
2022/03/26 04:10:47;;;;;;;44.72;23.42;;;;;;;11.38;53.88;102090.97;5054086;28;20421;-86
2022/03/26 04:13:12;;;;;;;42.08;22.38;;;;;;;11.39;54.02;102090.88;5054265;28;20029;-86
2022/03/26 04:15:39;;;;;;;56.42;24.90;;;;;;;11.32;54.12;102086.81;5054028;28;20036;-87
2022/03/26 04:18:04;;;;;;;52.40;23.75;;;;;;;11.72;52.97;102092.91;5052270;28;20375;-87
2022/03/26 04:20:30;;;;;;;59.03;25.05;;;;;;;11.69;52.84;102093.06;5033773;28;20033;-87
2022/03/26 04:22:55;;;;;;;43.60;22.90;;;;;;;11.70;52.69;102086.88;5033892;28;20029;-86
2022/03/26 04:25:21;;;;;;;50.10;25.08;;;;;;;11.59;53.15;102090.00;5034088;28;20036;-86
2022/03/26 04:27:47;;;;;;;54.40;23.42;;;;;;;11.52;53.15;102092.03;5033786;28;20029;-86
2022/03/26 04:30:13;;;;;;;53.08;24.63;;;;;;;11.56;53.18;102100.66;5033817;28;20029;-86
2022/03/26 04:32:39;;;;;;;52.35;25.02;;;;;;;11.50;53.06;102096.50;5033568;28;20041;-86
2022/03/26 04:35:05;;;;;;;68.75;27.70;;;;;;;11.60;52.88;102090.84;5053568;28;20117;-86
2022/03/26 04:37:30;;;;;;;52.28;25.17;;;;;;;11.58;52.46;102092.69;5053677;28;20115;-86
2022/03/26 04:39:55;;;;;;;46.55;24.25;;;;;;;11.50;53.15;102086.00;5053721;28;20029;-86
2022/03/26 04:42:21;;;;;;;53.88;25.65;;;;;;;11.70;52.38;102092.13;5053841;28;20029;-86
2022/03/26 04:44:46;;;;;;;51.92;23.83;;;;;;;11.63;52.52;102091.56;5053618;28;20025;-86
2022/03/26 04:47:12;;;;;;;55.88;25.60;;;;;;;11.57;52.72;102093.59;5053706;28;20453;-86
2022/03/26 04:49:37;;;;;;;48.05;24.10;;;;;;;11.70;52.52;102092.97;5039176;28;20021;-86
2022/03/26 04:52:03;;;;;;;58.45;25.95;;;;;;;11.56;52.88;102094.53;5036636;28;20120;-86
2022/03/26 04:54:28;;;;;;;52.55;25.92;;;;;;;11.51;53.12;102097.34;5033385;28;20033;-86
2022/03/26 04:56:54;;;;;;;53.65;24.67;;;;;;;11.54;52.77;102094.59;5033746;28;20029;-86
2022/03/26 04:59:19;;;;;;;50.63;24.52;;;;;;;11.41;53.16;102102.16;5032490;28;20467;-86
2022/03/26 05:01:44;;;;;;;53.25;24.30;;;;;;;11.44;52.69;102099.41;5033625;28;20083;-86
2022/03/26 05:04:14;;;;;;;49.85;24.17;;;;;;;11.58;52.50;102097.94;5034328;28;20021;-86
2022/03/26 05:06:40;;;;;;;55.83;25.08;;;;;;;11.45;52.55;102106.41;5033552;28;20415;-86
2022/03/26 05:09:05;;;;;;;54.65;26.45;;;;;;;11.46;52.79;102113.34;5033376;28;20036;-86
2022/03/26 05:11:30;;;;;;;55.53;25.48;;;;;;;11.39;52.58;102109.28;5032586;28;20022;-86
2022/03/26 05:13:57;;;;;;;57.35;25.77;;;;;;;11.36;52.74;102108.59;5033215;28;20029;-86
2022/03/26 05:16:23;;;;;;;57.53;26.17;;;;;;;11.28;53.38;102112.41;5033431;28;20017;-86
2022/03/26 05:18:48;;;;;;;57.50;27.13;;;;;;;11.23;53.21;102118.78;5033581;28;20058;-86
2022/03/26 05:21:14;;;;;;;57.20;27.13;;;;;;;11.27;53.13;102115.09;5031896;28;20376;-86
2022/03/26 05:23:39;;;;;;;59.45;29.10;;;;;;;11.41;52.86;102117.94;5032924;28;20026;-86
2022/03/26 05:26:04;;;;;;;57.85;28.23;;;;;;;11.22;53.53;102114.44;5031530;28;20040;-86
2022/03/26 05:28:30;;;;;;;54.13;26.42;;;;;;;11.21;53.16;102118.81;5033261;28;20030;-86
2022/03/26 05:30:56;;;;;;;55.42;26.13;;;;;;;11.14;53.07;102120.03;5032833;28;20029;-86
2022/03/26 05:33:21;;;;;;;60.20;27.17;;;;;;;11.27;52.90;102120.34;5033203;28;20040;-86
2022/03/26 05:35:47;;;;;;;62.42;26.80;;;;;;;11.32;52.99;102121.00;5049496;28;20025;-86
2022/03/26 05:38:13;;;;;;;59.65;26.88;;;;;;;11.35;52.65;102122.63;5052668;28;20487;-86
2022/03/26 05:40:38;;;;;;;50.53;24.90;;;;;;;11.44;52.40;102132.75;5052559;28;20108;-86
2022/03/26 05:43:04;;;;;;;55.80;26.58;;;;;;;11.28;52.80;102129.97;5052447;28;20028;-86
2022/03/26 05:45:30;;;;;;;61.00;29.10;;;;;;;11.18;52.75;102118.13;5052495;28;20021;-86
2022/03/26 05:47:57;;;;;;;66.95;27.55;;;;;;;11.09;53.38;102117.56;5052498;28;20029;-86
2022/03/26 05:50:22;;;;;;;60.70;27.00;;;;;;;11.14;53.15;102135.81;5036833;28;20021;-86
2022/03/26 05:52:48;;;;;;;56.03;26.17;;;;;;;11.19;52.70;102139.06;5032909;28;20128;-86
2022/03/26 05:55:16;;;;;;;54.97;26.15;;;;;;;11.19;52.67;102130.34;5032588;28;20450;-86
2022/03/26 05:57:41;;;;;;;57.20;25.90;;;;;;;11.15;52.68;102144.53;5039803;28;20081;-85
2022/03/26 06:00:07;;;;;;;47.30;24.40;;;;;;;11.05;52.65;102136.19;5051829;28;20144;-86
2022/03/26 06:02:33;;;;;;;60.90;27.35;;;;;;;11.21;52.64;102136.38;5049972;28;20025;-86
2022/03/26 06:04:59;;;;;;;59.13;26.63;;;;;;;11.21;52.50;102142.50;5032677;28;20388;-86
2022/03/26 06:07:24;;;;;;;50.30;25.48;;;;;;;11.26;52.50;102139.69;5032818;28;20029;-86
2022/03/26 06:09:49;;;;;;;53.65;25.52;;;;;;;11.19;52.43;102143.47;5032101;28;20083;-86
2022/03/26 06:12:15;;;;;;;59.85;26.42;;;;;;;11.09;52.87;102135.97;5032102;28;20069;-86
2022/03/26 06:14:40;;;;;;;59.10;25.27;;;;;;;11.24;52.54;102150.25;5032209;28;20025;-86
2022/03/26 06:17:05;;;;;;;54.33;25.85;;;;;;;11.31;52.05;102148.22;5045044;28;20048;-86
2022/03/26 06:19:31;;;;;;;47.83;23.90;;;;;;;11.17;52.60;102153.22;5031933;28;20026;-86
2022/03/26 06:21:56;;;;;;;53.90;25.60;;;;;;;11.29;52.29;102150.94;5037383;28;20072;-86
2022/03/26 06:24:21;;;;;;;54.00;25.35;;;;;;;11.31;52.10;102158.72;5051995;28;20032;-86
2022/03/26 06:26:48;;;;;;;65.80;26.58;;;;;;;11.46;52.10;102162.47;5049869;28;20033;-86
2022/03/26 06:29:14;;;;;;;57.10;25.65;;;;;;;11.44;52.10;102164.34;5043025;28;20491;-86
2022/03/26 06:31:39;;;;;;;52.92;24.50;;;;;;;11.43;51.97;102168.75;5038790;28;20060;-86
2022/03/26 06:34:05;;;;;;;56.40;24.83;;;;;;;11.53;51.85;102174.44;5045425;28;20060;-86
2022/03/26 06:36:30;;;;;;;51.00;25.05;;;;;;;11.54;52.01;102167.41;5032055;28;20556;-86
2022/03/26 06:38:56;;;;;;;58.45;25.45;;;;;;;11.34;52.07;102174.38;5031966;28;20408;-86
2022/03/26 06:41:21;;;;;;;59.22;26.55;;;;;;;11.42;52.31;102174.91;5031587;28;20029;-86
2022/03/26 06:43:47;;;;;;;54.67;25.65;;;;;;;11.52;51.81;102178.00;5031838;28;20021;-86
2022/03/26 06:46:12;;;;;;;59.33;25.98;;;;;;;11.39;52.05;102177.66;5037725;28;20021;-86
2022/03/26 06:48:38;;;;;;;51.30;24.15;;;;;;;11.64;51.63;102181.88;5046406;28;20231;-86
2022/03/26 06:51:06;;;;;;;61.00;25.83;;;;;;;11.51;51.65;102185.03;5051603;28;20467;-86
2022/03/26 06:53:33;;;;;;;53.75;23.52;;;;;;;11.69;51.24;102187.78;5032763;28;20076;-86
2022/03/26 06:55:59;;;;;;;51.33;24.52;;;;;;;11.40;51.95;102194.31;5031807;28;20021;-85
2022/03/26 06:58:25;;;;;;;54.38;25.63;;;;;;;11.70;51.69;102192.13;5031704;28;20382;-86
2022/03/26 07:00:51;;;;;;;51.00;24.27;;;;;;;11.68;51.60;102189.56;5031492;28;20022;-86
2022/03/26 07:03:16;;;;;;;53.67;26.40;;;;;;;11.71;51.44;102197.31;5032070;28;20491;-86
2022/03/26 07:05:42;;;;;;;60.88;25.92;;;;;;;11.77;51.21;102193.56;5032830;28;20051;-87
2022/03/26 07:08:07;;;;;;;52.30;24.92;;;;;;;11.87;51.27;102199.28;5030828;28;20026;-88
2022/03/26 07:10:33;;;;;;;55.20;24.15;;;;;;;12.00;51.03;102194.34;5028704;28;20522;-87
2022/03/26 07:12:58;;;;;;;53.50;25.25;;;;;;;11.99;51.01;102193.50;5046792;28;20402;-87
2022/03/26 07:15:23;;;;;;;57.88;24.45;;;;;;;12.07;50.94;102193.13;5045348;28;20025;-86
2022/03/26 07:17:49;;;;;;;53.30;24.15;;;;;;;12.40;50.51;102198.63;5035119;28;20079;-86
2022/03/26 07:20:14;;;;;;;56.50;24.08;;;;;;;12.63;49.58;102199.31;5034074;28;20029;-86
2022/03/26 07:22:42;;;;;;;54.90;23.40;;;;;;;12.69;49.75;102199.84;5030554;28;20113;-87
2022/03/26 07:25:09;;;;;;;50.08;23.98;;;;;;;13.01;49.34;102192.16;5031102;28;20053;-86
2022/03/26 07:27:35;;;;;;;55.70;25.23;;;;;;;13.22;48.43;102195.50;5047614;28;20558;-86
2022/03/26 07:30:02;;;;;;;45.72;23.42;;;;;;;13.29;48.25;102193.41;5046299;28;20044;-86
2022/03/26 07:32:28;;;;;;;48.72;23.45;;;;;;;13.76;47.11;102197.19;5040933;28;20483;-85
2022/03/26 07:34:53;;;;;;;49.47;24.55;;;;;;;14.42;46.10;102198.91;5046402;28;20036;-87
2022/03/26 07:37:19;;;;;;;45.20;22.75;;;;;;;14.62;45.24;102208.38;5048216;28;20037;-90
2022/03/26 07:39:45;;;;;;;50.88;23.17;;;;;;;15.15;43.96;102206.25;5037309;28;20104;-89
2022/03/26 07:42:10;;;;;;;50.83;23.70;;;;;;;15.82;42.75;102211.97;5043169;28;20055;-88
2022/03/26 07:44:35;;;;;;;49.55;23.25;;;;;;;15.79;42.40;102205.06;5052881;28;20020;-89
2022/03/26 07:47:01;;;;;;;45.42;24.27;;;;;;;15.99;42.49;102213.56;5053278;28;20112;-90
2022/03/26 07:49:26;;;;;;;48.72;23.30;;;;;;;15.90;42.58;102209.69;5039854;28;20029;-90
2022/03/26 07:51:52;;;;;;;43.13;23.17;;;;;;;16.37;42.08;102210.28;5033570;28;20053;-87
2022/03/26 07:54:17;;;;;;;44.65;21.67;;;;;;;16.49;41.13;102212.19;5035009;28;20468;-87
2022/03/26 07:56:42;;;;;;;41.63;23.45;;;;;;;17.35;40.28;102214.47;5048199;28;20535;-87
2022/03/26 07:59:08;;;;;;;47.85;23.83;;;;;;;17.88;38.84;102217.09;5048929;28;20033;-88
2022/03/26 08:01:34;;;;;;;39.97;21.58;;;;;;;18.82;38.15;102205.06;5034324;28;20082;-88
2022/03/26 08:03:59;;;;;;;38.55;21.98;;;;;;;19.49;36.15;102214.19;5034277;28;20021;-89
2022/03/26 08:06:25;;;;;;;36.78;20.10;;;;;;;20.15;35.33;102222.38;5037606;28;20036;-89
2022/03/26 08:08:50;;;;;;;38.45;20.02;;;;;;;21.20;33.99;102212.00;5039350;28;20423;-88
2022/03/26 08:11:16;;;;;;;35.70;19.05;;;;;;;21.93;32.36;102212.84;5040923;28;20434;-88
2022/03/26 08:13:42;;;;;;;40.85;20.55;;;;;;;22.35;31.47;102215.44;5042142;28;20039;-86
2022/03/26 08:16:08;;;;;;;40.25;18.23;;;;;;;22.78;30.43;102205.31;5037789;28;20029;-89
2022/03/26 08:18:34;;;;;;;40.80;19.92;;;;;;;23.00;30.07;102217.56;5036640;28;20053;-88
2022/03/26 08:20:59;;;;;;;38.33;20.45;;;;;;;23.19;29.76;102195.31;5031702;28;20414;-93
2022/03/26 08:23:24;;;;;;;36.75;19.85;;;;;;;23.11;29.95;102208.59;5048260;28;20028;-93
2022/03/26 08:28:34;;;;;;;46.83;20.10;;;;;;;23.54;29.14;102213.44;5043716;28;20044;-94
2022/03/26 08:31:03;;;;;;;37.08;17.52;;;;;;;23.55;29.18;102214.28;5043060;28;20033;-96
2022/03/26 08:33:29;;;;;;;36.75;19.13;;;;;;;23.67;28.99;102213.09;5079825;22;20041;-96
2022/03/26 08:35:54;;;;;;;34.95;19.65;;;;;;;23.48;28.84;102213.16;5074817;28;20075;-91
2022/03/26 08:38:20;;;;;;;31.23;17.95;;;;;;;23.38;29.03;102213.22;5059603;28;20471;-91
2022/03/26 08:40:46;;;;;;;32.70;17.90;;;;;;;23.70;28.72;102217.34;5060038;28;20054;-94
2022/03/26 08:43:12;;;;;;;32.35;17.80;;;;;;;24.50;27.74;102207.78;5059481;28;20517;-93
2022/03/26 08:45:40;;;;;;;33.60;18.02;;;;;;;24.85;27.08;102207.97;5063670;28;20025;-93
2022/03/26 08:48:05;;;;;;;32.65;16.42;;;;;;;24.93;26.62;102213.41;5057240;28;20078;-93
2022/03/26 08:50:31;;;;;;;29.63;16.40;;;;;;;25.56;26.60;102215.06;5059411;28;20021;-93
2022/03/26 08:52:57;;;;;;;30.23;17.25;;;;;;;25.87;26.03;102211.84;5065421;28;20115;-94
2022/03/26 08:55:24;;;;;;;33.35;16.58;;;;;;;26.50;25.17;102219.50;5057492;28;20486;-94
2022/03/26 08:57:49;;;;;;;37.53;18.65;;;;;;;25.97;25.38;102218.00;5042547;28;20140;-96
2022/03/26 09:00:16;;;;;;;28.08;14.65;;;;;;;26.30;25.19;102228.84;5069078;28;20436;-95
2022/03/26 09:02:41;;;;;;;22.98;14.13;;;;;;;25.91;24.83;102224.03;5056425;28;20483;-96
2022/03/26 09:05:07;;;;;;;37.92;16.40;;;;;;;25.98;24.41;102219.66;5143591;22;20067;-96
2022/03/26 09:07:34;;;;;;;23.50;14.68;;;;;;;26.21;24.33;102219.94;5071726;28;20031;-95
2022/03/26 09:09:59;;;;;;;24.45;13.52;;;;;;;26.83;24.23;102218.72;5064684;28;20483;-96
2022/03/26 09:12:25;;;;;;;21.60;12.45;;;;;;;26.96;24.00;102216.38;5070647;28;20032;-95
2022/03/26 09:14:50;;;;;;;23.67;13.50;;;;;;;27.57;23.61;102219.53;5060436;28;20036;-95
2022/03/26 09:17:15;;;;;;;26.73;13.80;;;;;;;27.75;23.43;102218.47;5068094;28;20025;-93
2022/03/26 09:19:41;;;;;;;24.42;13.73;;;;;;;28.58;22.88;102222.47;5066819;28;20112;-94
2022/03/26 09:22:06;;;;;;;26.33;12.68;;;;;;;28.47;22.80;102213.72;5069647;28;20024;-95
2022/03/26 09:24:32;;;;;;;26.42;12.20;;;;;;;29.28;22.22;102216.00;5056429;28;20052;-96
2022/03/26 09:26:57;;;;;;;22.45;11.93;;;;;;;29.66;21.78;102208.66;5060475;28;20025;-87
2022/03/26 09:29:22;;;;;;;22.63;12.48;;;;;;;28.92;21.51;102213.09;5062083;28;20031;-87
2022/03/26 09:31:48;;;;;;;28.85;13.88;;;;;;;28.05;22.21;102216.84;5060968;28;20032;-88
2022/03/26 09:34:13;;;;;;;19.23;11.10;;;;;;;28.31;22.17;102219.22;5039335;28;20490;-87
2022/03/26 09:36:39;;;;;;;18.85;11.45;;;;;;;28.63;22.02;102225.47;5055821;28;20020;-87
2022/03/26 09:39:04;;;;;;;21.95;11.63;;;;;;;29.13;22.04;102212.41;5064384;28;20120;-88
2022/03/26 09:41:33;;;;;;;19.05;11.00;;;;;;;29.28;22.33;102216.00;5056332;28;20032;-87
2022/03/26 09:43:59;;;;;;;22.38;13.25;;;;;;;29.40;22.09;102211.78;5063544;28;20233;-88
2022/03/26 09:46:24;;;;;;;23.05;11.90;;;;;;;29.82;21.38;102210.34;5053219;28;20032;-88
2022/03/26 09:48:50;;;;;;;23.08;12.23;;;;;;;29.90;22.10;102197.72;5052306;28;20029;-87
2022/03/26 09:51:20;;;;;;;20.40;11.80;;;;;;;30.20;20.97;102210.19;5060489;28;20035;-87
2022/03/26 09:53:46;;;;;;;20.88;11.15;;;;;;;30.22;21.15;102204.56;5068972;28;20070;-88
2022/03/26 09:56:12;;;;;;;25.45;11.90;;;;;;;30.17;21.34;102205.13;5064478;28;20013;-89
2022/03/26 09:58:38;;;;;;;26.13;11.60;;;;;;;30.48;20.77;102205.94;5052985;28;20032;-88
2022/03/26 10:01:03;;;;;;;21.85;11.10;;;;;;;30.18;21.12;102206.00;5038568;28;20029;-89
2022/03/26 10:03:28;;;;;;;22.00;11.30;;;;;;;30.09;21.54;102199.00;5045976;28;20040;-88
2022/03/26 10:06:04;;;;;;;21.67;11.48;;;;;;;30.11;20.46;102207.78;5067792;28;20028;-89
2022/03/26 10:08:35;;;;;;;22.35;10.75;;;;;;;30.30;20.32;102203.63;5045036;28;20025;-88
2022/03/26 10:11:01;;;;;;;18.02;11.32;;;;;;;29.15;20.99;102210.38;5064043;28;20025;-88
2022/03/26 10:13:48;;;;;;;22.58;11.48;;;;;;;28.78;21.49;102214.72;5062470;28;20115;-89
2022/03/26 10:16:15;;;;;;;19.08;11.13;;;;;;;29.31;21.59;102203.97;5058133;28;20074;-89
2022/03/26 10:18:45;;;;;;;24.50;11.15;;;;;;;29.49;21.62;102203.63;5054224;28;20032;-89
2022/03/26 10:21:15;;;;;;;25.38;10.95;;;;;;;29.22;21.06;102206.75;5062802;28;20063;-87
2022/03/26 10:23:48;;;;;;;21.92;11.82;;;;;;;29.62;21.12;102203.78;5064353;28;20074;-89
2022/03/26 10:26:22;;;;;;;23.00;11.00;;;;;;;30.32;20.71;102207.84;5060739;28;20052;-89
2022/03/26 10:28:53;;;;;;;22.33;11.55;;;;;;;30.73;20.50;102193.66;5060027;28;20027;-90
2022/03/26 10:34:14;;;;;;;20.65;11.45;;;;;;;31.15;20.43;102196.53;5060032;28;20585;-90
2022/03/26 10:36:42;;;;;;;20.88;10.93;;;;;;;31.21;20.13;102195.72;5037915;28;20437;-90
2022/03/26 10:39:20;;;;;;;23.67;12.55;;;;;;;29.77;20.60;102193.00;5052647;28;20029;-89
2022/03/26 10:41:47;;;;;;;22.45;12.50;;;;;;;29.57;21.30;102193.53;5054856;28;20033;-90
2022/03/26 10:44:15;;;;;;;19.27;11.95;;;;;;;30.70;20.81;102193.19;5054134;28;20036;-90
2022/03/26 10:46:54;;;;;;;21.02;11.85;;;;;;;30.66;21.23;102197.34;5057107;28;20033;-89
2022/03/26 10:49:32;;;;;;;21.13;12.10;;;;;;;30.83;20.76;102188.72;5060675;28;20029;-90
2022/03/26 10:52:10;;;;;;;17.80;10.32;;;;;;;30.80;20.46;102191.00;5059552;28;20037;-92
2022/03/26 10:54:35;;;;;;;28.55;13.10;;;;;;;29.53;20.86;102192.22;5066262;28;20454;-90
2022/03/26 10:57:02;;;;;;;17.08;10.27;;;;;;;29.69;21.07;102190.34;5071135;28;20021;-90
2022/03/26 10:59:28;;;;;;;19.77;9.15;;;;;;;28.56;21.52;102195.63;5074026;28;20032;-89
2022/03/26 11:01:53;;;;;;;16.20;8.77;;;;;;;28.45;21.57;102196.00;5058532;28;20021;-89
2022/03/26 11:04:20;;;;;;;20.67;8.98;;;;;;;28.84;21.24;102195.06;5057865;28;20044;-89
2022/03/26 11:06:47;;;;;;;14.25;9.02;;;;;;;29.02;21.56;102184.75;5062601;28;20077;-90
2022/03/26 11:09:15;;;;;;;19.63;10.70;;;;;;;28.41;21.87;102192.81;5062078;28;20033;-89